Time,TemperatureF,DewpointF,PressureIn,WindDirection,WindDirectionDegrees,WindSpeedMPH,WindSpeedGustMPH,Humidity,HourlyPrecipIn,Conditions,Clouds,dailyrainin,SoftwareType,DateUTC
2013-02-13 00:10:00,50.3,47.0,29.93,WNW,287,0.0,6.0,87,0.00,,,0.00,weatherlink.com 1.10,2013-02-13 06:10:00,
2013-02-13 00:25:00,50.1,47.0,29.92,SW,233,0.0,6.0,88,0.00,,,0.00,weatherlink.com 1.10,2013-02-13 06:25:00,
2013-02-13 00:40:00,49.9,46.0,29.94,SW,235,2.0,5.0,87,0.00,,,0.00,weatherlink.com 1.10,2013-02-13 06:40:00,
2013-02-13 00:55:00,49.6,46.0,29.94,NW,306,0.0,5.0,87,0.00,,,0.00,weatherlink.com 1.10,2013-02-13 06:55:00,
2013-02-13 01:10:00,49.5,46.0,29.95,SW,219,0.0,7.0,87,0.00,,,0.00,weatherlink.com 1.10,2013-02-13 07:10:00,
2013-02-13 01:25:00,49.3,45.0,29.97,SW,226,6.0,8.0,86,0.00,,,0.00,weatherlink.com 1.10,2013-02-13 07:25:00,
2013-02-13 01:40:00,49.1,45.0,29.98,SW,233,2.0,5.0,86,0.00,,,0.00,weatherlink.com 1.10,2013-02-13 07:40:00,
2013-02-13 01:55:00,49.0,45.0,29.98,SW,223,0.0,9.0,86,0.00,,,0.00,weatherlink.com 1.10,2013-02-13 07:55:00,
2013-02-13 02:10:00,48.8,45.0,29.98,SSW,194,2.0,8.0,86,0.00,,,0.00,weatherlink.com 1.10,2013-02-13 08:10:00,
2013-02-13 02:25:00,48.5,45.0,29.99,WSW,251,0.0,10.0,86,0.00,,,0.00,weatherlink.com 1.10,2013-02-13 08:25:00,
2013-02-13 02:41:00,48.3,44.0,29.99,WSW,249,0.0,6.0,85,0.00,,,0.00,weatherlink.com 1.10,2013-02-13 08:41:00,
2013-02-13 02:56:00,48.1,43.0,29.98,WNW,303,1.0,8.0,83,0.00,,,0.00,weatherlink.com 1.10,2013-02-13 08:56:00,
2013-02-13 03:10:00,48.1,44.0,30.00,WSW,251,2.0,7.0,84,0.00,,,0.00,weatherlink.com 1.10,2013-02-13 09:10:00,
2013-02-13 03:26:00,48.1,44.0,30.01,SW,234,2.0,8.0,84,0.00,,,0.00,weatherlink.com 1.10,2013-02-13 09:26:00,
2013-02-13 03:40:00,47.8,44.0,30.01,WSW,244,1.0,6.0,85,0.00,,,0.00,weatherlink.com 1.10,2013-02-13 09:40:00,
2013-02-13 03:56:00,47.6,44.0,30.01,SW,215,4.0,7.0,86,0.00,,,0.00,weatherlink.com 1.10,2013-02-13 09:56:00,
2013-02-13 04:10:00,47.5,43.0,30.01,NW,322,1.0,5.0,85,0.00,,,0.00,weatherlink.com 1.10,2013-02-13 10:10:00,
2013-02-13 04:26:00,47.5,43.0,30.00,NW,307,2.0,6.0,85,0.00,,,0.00,weatherlink.com 1.10,2013-02-13 10:26:00,
2013-02-13 04:40:00,47.4,43.0,30.00,WNW,295,4.0,8.0,85,0.00,,,0.00,weatherlink.com 1.10,2013-02-13 10:40:00,
2013-02-13 04:55:00,47.4,43.0,29.99,NW,325,4.0,7.0,85,0.00,,,0.00,weatherlink.com 1.10,2013-02-13 10:55:00,
2013-02-13 05:10:00,47.3,43.0,30.00,NW,317,4.0,10.0,85,0.00,,,0.00,weatherlink.com 1.10,2013-02-13 11:10:00,
2013-02-13 05:26:00,47.2,43.0,30.01,West,277,0.0,9.0,85,0.00,,,0.00,weatherlink.com 1.10,2013-02-13 11:26:00,
2013-02-13 05:41:00,47.1,43.0,30.01,NNW,331,5.0,7.0,84,0.00,,,0.00,weatherlink.com 1.10,2013-02-13 11:41:00,
2013-02-13 05:56:00,46.9,42.0,30.02,NW,316,2.0,6.0,84,0.00,,,0.00,weatherlink.com 1.10,2013-02-13 11:56:00,
2013-02-13 06:11:00,46.5,42.0,30.03,WSW,251,2.0,8.0,83,0.00,,,0.00,weatherlink.com 1.10,2013-02-13 12:11:00,
2013-02-13 06:26:00,46.1,41.0,30.04,WNW,286,2.0,7.0,83,0.00,,,0.00,weatherlink.com 1.10,2013-02-13 12:26:00,
2013-02-13 06:41:00,45.7,41.0,30.04,NW,307,5.0,7.0,82,0.00,,,0.00,weatherlink.com 1.10,2013-02-13 12:41:00,
2013-02-13 06:56:00,45.4,41.0,30.05,WNW,298,2.0,7.0,83,0.00,,,0.00,weatherlink.com 1.10,2013-02-13 12:56:00,
2013-02-13 07:11:00,45.2,41.0,30.06,NW,309,1.0,8.0,84,0.00,,,0.00,weatherlink.com 1.10,2013-02-13 13:11:00,
2013-02-13 07:26:00,45.2,41.0,30.07,WSW,258,0.0,3.0,86,0.00,,,0.00,weatherlink.com 1.10,2013-02-13 13:26:00,
2013-02-13 07:41:00,45.0,41.0,30.08,NW,304,4.0,8.0,85,0.00,,,0.00,weatherlink.com 1.10,2013-02-13 13:41:00,
2013-02-13 07:56:00,44.8,41.0,30.08,WNW,288,0.0,7.0,85,0.00,,,0.00,weatherlink.com 1.10,2013-02-13 13:56:00,
2013-02-13 08:11:00,44.9,41.0,30.09,West,273,0.0,7.0,85,0.00,,,0.00,weatherlink.com 1.10,2013-02-13 14:11:00,
2013-02-13 08:26:00,45.2,41.0,30.09,WNW,294,2.0,8.0,85,0.00,,,0.00,weatherlink.com 1.10,2013-02-13 14:26:00,
2013-02-13 08:41:00,45.7,41.0,30.10,NW,323,1.0,8.0,84,0.00,,,0.00,weatherlink.com 1.10,2013-02-13 14:41:00,
2013-02-13 08:56:00,46.7,41.0,30.11,NW,311,4.0,9.0,81,0.00,,,0.00,weatherlink.com 1.10,2013-02-13 14:56:00,
2013-02-13 09:11:00,46.4,41.0,30.10,WNW,300,0.0,7.0,80,0.00,,,0.00,weatherlink.com 1.10,2013-02-13 15:11:00,
2013-02-13 09:26:00,46.1,40.0,30.11,WNW,298,1.0,9.0,80,0.00,,,0.00,weatherlink.com 1.10,2013-02-13 15:26:00,
2013-02-13 09:41:00,46.1,40.0,30.11,NNW,327,3.0,9.0,79,0.00,,,0.00,weatherlink.com 1.10,2013-02-13 15:41:00,
2013-02-13 09:56:00,46.3,40.0,30.11,NNE,19,2.0,8.0,79,0.00,,,0.00,weatherlink.com 1.10,2013-02-13 15:56:00,
2013-02-13 10:11:00,46.3,40.0,30.11,NW,311,2.0,6.0,79,0.00,,,0.00,weatherlink.com 1.10,2013-02-13 16:11:00,
2013-02-13 10:26:00,46.3,40.0,30.11,NW,304,2.0,8.0,79,0.00,,,0.00,weatherlink.com 1.10,2013-02-13 16:26:00,
2013-02-13 10:41:00,46.5,40.0,30.12,NNW,327,4.0,6.0,79,0.00,,,0.00,weatherlink.com 1.10,2013-02-13 16:41:00,
2013-02-13 10:56:00,46.8,40.0,30.12,North,5,2.0,8.0,78,0.00,,,0.00,weatherlink.com 1.10,2013-02-13 16:56:00,
2013-02-13 11:11:00,47.2,40.0,30.12,NW,323,3.0,6.0,77,0.00,,,0.00,weatherlink.com 1.10,2013-02-13 17:11:00,
2013-02-13 11:27:00,48.9,41.0,30.11,West,279,4.0,9.0,73,0.00,,,0.00,weatherlink.com 1.10,2013-02-13 17:27:00,
2013-02-13 11:41:00,49.3,40.0,30.10,West,269,4.0,8.0,71,0.00,,,0.00,weatherlink.com 1.10,2013-02-13 17:41:00,
2013-02-13 11:56:00,50.6,41.0,30.10,SSW,208,0.0,6.0,71,0.00,,,0.00,weatherlink.com 1.10,2013-02-13 17:56:00,
2013-02-13 12:11:00,50.8,41.0,30.09,WNW,292,0.0,5.0,69,0.00,,,0.00,weatherlink.com 1.10,2013-02-13 18:11:00,
2013-02-13 12:27:00,51.2,42.0,30.09,WNW,289,5.0,7.0,70,0.00,,,0.00,weatherlink.com 1.10,2013-02-13 18:27:00,
2013-02-13 12:41:00,51.4,41.0,30.08,NNE,28,3.0,9.0,68,0.00,,,0.00,weatherlink.com 1.10,2013-02-13 18:41:00,
2013-02-13 12:56:00,51.5,41.0,30.07,WNW,299,2.0,8.0,68,0.00,,,0.00,weatherlink.com 1.10,2013-02-13 18:56:00,
2013-02-13 13:11:00,52.3,42.0,30.06,SW,232,4.0,7.0,67,0.00,,,0.00,weatherlink.com 1.10,2013-02-13 19:11:00,
2013-02-13 13:27:00,53.1,43.0,30.05,NW,309,3.0,6.0,68,0.00,,,0.00,weatherlink.com 1.10,2013-02-13 19:27:00,
2013-02-13 13:41:00,53.7,42.0,30.05,West,269,3.0,6.0,64,0.00,,,0.00,weatherlink.com 1.10,2013-02-13 19:41:00,
2013-02-13 13:57:00,53.0,42.0,30.05,NNW,342,2.0,7.0,67,0.00,,,0.00,weatherlink.com 1.10,2013-02-13 19:57:00,
2013-02-13 19:01:00,48.2,42.0,30.05,West,281,0.0,4.0,78,0.00,,,0.00,weatherlink.com 1.10,2013-02-14 01:01:00,
2013-02-13 19:11:00,47.7,42.0,30.06,West,281,0.0,1.0,80,0.00,,,0.00,weatherlink.com 1.10,2013-02-14 01:11:00,
2013-02-13 19:26:00,47.0,41.0,30.06,North,5,0.0,5.0,80,0.00,,,0.00,weatherlink.com 1.10,2013-02-14 01:26:00,
2013-02-13 19:44:00,47.2,41.0,30.07,NE,34,3.0,5.0,80,0.00,,,0.00,weatherlink.com 1.10,2013-02-14 01:44:00,
2013-02-13 19:56:00,47.1,41.0,30.07,NNE,18,0.0,3.0,80,0.00,,,0.00,weatherlink.com 1.10,2013-02-14 01:56:00,
2013-02-13 20:12:00,46.8,41.0,30.07,North,5,0.0,2.0,80,0.00,,,0.00,weatherlink.com 1.10,2013-02-14 02:12:00,
2013-02-13 20:26:00,45.3,40.0,30.07,NE,35,0.0,1.0,82,0.00,,,0.00,weatherlink.com 1.10,2013-02-14 02:26:00,
2013-02-13 20:41:00,44.2,40.0,30.08,NE,35,0.0,1.0,84,0.00,,,0.00,weatherlink.com 1.10,2013-02-14 02:41:00,
2013-02-13 20:56:00,42.9,39.0,30.08,NE,35,0.0,1.0,86,0.00,,,0.00,weatherlink.com 1.10,2013-02-14 02:56:00,
2013-02-13 21:12:00,41.6,38.0,30.09,NE,35,0.0,1.0,86,0.00,,,0.00,weatherlink.com 1.10,2013-02-14 03:12:00,
2013-02-13 21:27:00,40.7,37.0,30.08,NE,35,0.0,1.0,87,0.00,,,0.00,weatherlink.com 1.10,2013-02-14 03:27:00,
2013-02-13 21:42:00,39.7,37.0,30.09,NE,35,0.0,1.0,89,0.00,,,0.00,weatherlink.com 1.10,2013-02-14 03:42:00,
2013-02-13 21:57:00,39.1,36.0,30.09,NE,36,0.0,2.0,89,0.00,,,0.00,weatherlink.com 1.10,2013-02-14 03:57:00,
2013-02-13 22:12:00,38.4,36.0,30.09,NE,36,0.0,0.0,90,0.00,,,0.00,weatherlink.com 1.10,2013-02-14 04:12:00,
2013-02-13 22:42:00,37.7,35.0,30.09,NE,36,0.0,1.0,91,0.00,,,0.00,weatherlink.com 1.10,2013-02-14 04:42:00,
2013-02-13 23:12:00,36.7,34.0,30.09,NE,36,0.0,0.0,91,0.00,,,0.00,weatherlink.com 1.10,2013-02-14 05:12:00,
2013-02-13 23:27:00,36.1,34.0,30.09,NE,36,0.0,1.0,91,0.00,,,0.00,weatherlink.com 1.10,2013-02-14 05:27:00,
2013-02-13 23:42:00,35.7,33.0,30.09,NE,36,0.0,1.0,91,0.00,,,0.00,weatherlink.com 1.10,2013-02-14 05:42:00,
2013-02-13 23:57:00,35.2,33.0,30.09,NE,36,0.0,0.0,91,0.00,,,0.00,weatherlink.com 1.10,2013-02-14 05:57:00,